sensor_id;sensor_type;location;lat;lon;timestamp;P1;durP1;ratioP1;P2;durP2;ratioP2
27517;SDS011;14962;52.482;13.142;2024-02-15T00:00:11;6.07;;;3.53;;
27517;SDS011;14962;52.482;13.142;2024-02-15T00:02:37;5.00;;;3.42;;
27517;SDS011;14962;52.482;13.142;2024-02-15T00:05:03;7.07;;;3.60;;
27517;SDS011;14962;52.482;13.142;2024-02-15T00:07:30;7.38;;;3.47;;
27517;SDS011;14962;52.482;13.142;2024-02-15T00:09:56;7.43;;;3.10;;
27517;SDS011;14962;52.482;13.142;2024-02-15T00:12:23;5.47;;;3.72;;
27517;SDS011;14962;52.482;13.142;2024-02-15T00:14:49;8.95;;;3.50;;
27517;SDS011;14962;52.482;13.142;2024-02-15T00:17:15;7.63;;;3.90;;
27517;SDS011;14962;52.482;13.142;2024-02-15T00:19:43;6.50;;;3.58;;
27517;SDS011;14962;52.482;13.142;2024-02-15T00:22:09;8.45;;;3.90;;
27517;SDS011;14962;52.482;13.142;2024-02-15T00:24:36;10.38;;;4.65;;
27517;SDS011;14962;52.482;13.142;2024-02-15T00:27:03;7.00;;;3.80;;
27517;SDS011;14962;52.482;13.142;2024-02-15T00:29:29;6.28;;;4.40;;
27517;SDS011;14962;52.482;13.142;2024-02-15T00:31:56;7.03;;;5.07;;
27517;SDS011;14962;52.482;13.142;2024-02-15T00:34:22;7.93;;;4.43;;
27517;SDS011;14962;52.482;13.142;2024-02-15T00:36:51;7.60;;;4.13;;
27517;SDS011;14962;52.482;13.142;2024-02-15T00:39:17;7.95;;;4.53;;
27517;SDS011;14962;52.482;13.142;2024-02-15T00:41:46;7.40;;;4.85;;
27517;SDS011;14962;52.482;13.142;2024-02-15T00:44:12;10.07;;;4.35;;
27517;SDS011;14962;52.482;13.142;2024-02-15T00:46:38;8.23;;;4.70;;
27517;SDS011;14962;52.482;13.142;2024-02-15T00:49:04;8.10;;;4.78;;
27517;SDS011;14962;52.482;13.142;2024-02-15T00:51:33;9.77;;;4.75;;
27517;SDS011;14962;52.482;13.142;2024-02-15T00:54:00;14.50;;;5.03;;
27517;SDS011;14962;52.482;13.142;2024-02-15T00:56:26;11.05;;;5.60;;
27517;SDS011;14962;52.482;13.142;2024-02-15T00:58:52;8.63;;;5.07;;
27517;SDS011;14962;52.482;13.142;2024-02-15T01:01:18;9.15;;;5.20;;
27517;SDS011;14962;52.482;13.142;2024-02-15T01:03:44;9.88;;;5.35;;
27517;SDS011;14962;52.482;13.142;2024-02-15T01:06:10;8.25;;;5.70;;
27517;SDS011;14962;52.482;13.142;2024-02-15T01:08:36;8.80;;;5.45;;
27517;SDS011;14962;52.482;13.142;2024-02-15T01:11:02;9.43;;;5.07;;
27517;SDS011;14962;52.482;13.142;2024-02-15T01:13:29;8.13;;;5.43;;
27517;SDS011;14962;52.482;13.142;2024-02-15T01:15:55;12.48;;;5.60;;
27517;SDS011;14962;52.482;13.142;2024-02-15T01:18:21;12.07;;;5.80;;
27517;SDS011;14962;52.482;13.142;2024-02-15T01:20:47;9.52;;;5.63;;
27517;SDS011;14962;52.482;13.142;2024-02-15T01:23:13;9.18;;;6.10;;
27517;SDS011;14962;52.482;13.142;2024-02-15T01:25:39;11.07;;;6.05;;
27517;SDS011;14962;52.482;13.142;2024-02-15T01:28:05;8.55;;;5.43;;
27517;SDS011;14962;52.482;13.142;2024-02-15T01:30:31;8.52;;;5.40;;
27517;SDS011;14962;52.482;13.142;2024-02-15T01:32:57;11.55;;;6.00;;
27517;SDS011;14962;52.482;13.142;2024-02-15T01:35:24;9.45;;;6.10;;
27517;SDS011;14962;52.482;13.142;2024-02-15T01:37:50;10.85;;;6.45;;
27517;SDS011;14962;52.482;13.142;2024-02-15T01:40:17;12.95;;;6.43;;
27517;SDS011;14962;52.482;13.142;2024-02-15T01:42:44;10.02;;;6.15;;
27517;SDS011;14962;52.482;13.142;2024-02-15T01:45:10;10.20;;;6.63;;
27517;SDS011;14962;52.482;13.142;2024-02-15T01:47:36;9.15;;;5.78;;
27517;SDS011;14962;52.482;13.142;2024-02-15T01:50:04;9.52;;;7.07;;
27517;SDS011;14962;52.482;13.142;2024-02-15T01:52:31;10.52;;;6.32;;
27517;SDS011;14962;52.482;13.142;2024-02-15T01:54:57;11.13;;;6.75;;
27517;SDS011;14962;52.482;13.142;2024-02-15T01:57:23;12.05;;;6.53;;
27517;SDS011;14962;52.482;13.142;2024-02-15T01:59:50;8.52;;;5.97;;
27517;SDS011;14962;52.482;13.142;2024-02-15T02:02:20;10.85;;;6.68;;
27517;SDS011;14962;52.482;13.142;2024-02-15T02:04:46;9.93;;;6.47;;
27517;SDS011;14962;52.482;13.142;2024-02-15T02:07:12;10.07;;;6.53;;
27517;SDS011;14962;52.482;13.142;2024-02-15T02:09:39;10.45;;;6.30;;
27517;SDS011;14962;52.482;13.142;2024-02-15T02:12:05;9.85;;;6.28;;
27517;SDS011;14962;52.482;13.142;2024-02-15T02:14:32;9.45;;;6.85;;
27517;SDS011;14962;52.482;13.142;2024-02-15T02:17:11;12.18;;;6.25;;
27517;SDS011;14962;52.482;13.142;2024-02-15T02:19:38;11.27;;;6.70;;
27517;SDS011;14962;52.482;13.142;2024-02-15T02:22:04;9.35;;;6.15;;
27517;SDS011;14962;52.482;13.142;2024-02-15T02:24:30;10.30;;;6.43;;
27517;SDS011;14962;52.482;13.142;2024-02-15T02:27:02;11.40;;;6.60;;
27517;SDS011;14962;52.482;13.142;2024-02-15T02:29:28;10.48;;;7.05;;
27517;SDS011;14962;52.482;13.142;2024-02-15T02:31:55;10.75;;;6.78;;
27517;SDS011;14962;52.482;13.142;2024-02-15T02:34:22;9.45;;;6.43;;
27517;SDS011;14962;52.482;13.142;2024-02-15T02:36:49;12.95;;;6.80;;
27517;SDS011;14962;52.482;13.142;2024-02-15T02:39:16;7.97;;;6.00;;
27517;SDS011;14962;52.482;13.142;2024-02-15T02:41:42;10.10;;;7.05;;
27517;SDS011;14962;52.482;13.142;2024-02-15T02:44:08;8.85;;;5.70;;
27517;SDS011;14962;52.482;13.142;2024-02-15T02:46:34;10.93;;;6.10;;
27517;SDS011;14962;52.482;13.142;2024-02-15T02:49:00;11.63;;;6.03;;
27517;SDS011;14962;52.482;13.142;2024-02-15T02:51:26;10.70;;;6.78;;
27517;SDS011;14962;52.482;13.142;2024-02-15T02:53:52;11.05;;;6.93;;
27517;SDS011;14962;52.482;13.142;2024-02-15T02:56:18;11.88;;;7.07;;
27517;SDS011;14962;52.482;13.142;2024-02-15T02:58:44;10.18;;;6.57;;
27517;SDS011;14962;52.482;13.142;2024-02-15T03:01:10;9.20;;;5.97;;
27517;SDS011;14962;52.482;13.142;2024-02-15T03:03:38;9.32;;;6.25;;
27517;SDS011;14962;52.482;13.142;2024-02-15T03:06:04;10.73;;;6.50;;
27517;SDS011;14962;52.482;13.142;2024-02-15T03:08:31;11.15;;;6.72;;
27517;SDS011;14962;52.482;13.142;2024-02-15T03:10:57;9.57;;;6.60;;
27517;SDS011;14962;52.482;13.142;2024-02-15T03:13:23;10.60;;;6.05;;
27517;SDS011;14962;52.482;13.142;2024-02-15T03:15:48;9.70;;;6.75;;
27517;SDS011;14962;52.482;13.142;2024-02-15T03:18:15;8.45;;;5.50;;
27517;SDS011;14962;52.482;13.142;2024-02-15T03:20:42;10.20;;;7.03;;
27517;SDS011;14962;52.482;13.142;2024-02-15T03:23:08;12.48;;;7.00;;
27517;SDS011;14962;52.482;13.142;2024-02-15T03:25:34;13.10;;;6.55;;
27517;SDS011;14962;52.482;13.142;2024-02-15T03:28:00;9.55;;;6.40;;
27517;SDS011;14962;52.482;13.142;2024-02-15T03:30:28;10.70;;;7.07;;
27517;SDS011;14962;52.482;13.142;2024-02-15T03:32:55;9.57;;;6.55;;
27517;SDS011;14962;52.482;13.142;2024-02-15T03:35:22;12.68;;;7.30;;
27517;SDS011;14962;52.482;13.142;2024-02-15T03:37:48;12.82;;;7.10;;
27517;SDS011;14962;52.482;13.142;2024-02-15T03:40:18;8.60;;;6.35;;
27517;SDS011;14962;52.482;13.142;2024-02-15T03:42:44;9.18;;;6.30;;
27517;SDS011;14962;52.482;13.142;2024-02-15T03:45:10;10.43;;;6.85;;
27517;SDS011;14962;52.482;13.142;2024-02-15T03:47:36;11.82;;;6.90;;
27517;SDS011;14962;52.482;13.142;2024-02-15T03:50:05;12.60;;;7.55;;
27517;SDS011;14962;52.482;13.142;2024-02-15T03:52:33;12.20;;;6.70;;
27517;SDS011;14962;52.482;13.142;2024-02-15T03:55:00;13.20;;;8.23;;
27517;SDS011;14962;52.482;13.142;2024-02-15T03:57:27;12.35;;;7.43;;
27517;SDS011;14962;52.482;13.142;2024-02-15T03:59:53;11.45;;;6.95;;
27517;SDS011;14962;52.482;13.142;2024-02-15T04:02:21;12.57;;;6.95;;
27517;SDS011;14962;52.482;13.142;2024-02-15T04:04:48;11.05;;;6.50;;
27517;SDS011;14962;52.482;13.142;2024-02-15T04:07:14;12.65;;;7.07;;
27517;SDS011;14962;52.482;13.142;2024-02-15T04:09:41;10.93;;;7.00;;
27517;SDS011;14962;52.482;13.142;2024-02-15T04:12:07;12.63;;;6.78;;
27517;SDS011;14962;52.482;13.142;2024-02-15T04:14:34;10.80;;;7.00;;
27517;SDS011;14962;52.482;13.142;2024-02-15T04:17:00;11.75;;;7.47;;
27517;SDS011;14962;52.482;13.142;2024-02-15T04:19:27;12.77;;;6.68;;
27517;SDS011;14962;52.482;13.142;2024-02-15T04:21:53;14.13;;;6.68;;
27517;SDS011;14962;52.482;13.142;2024-02-15T04:24:20;10.23;;;6.88;;
27517;SDS011;14962;52.482;13.142;2024-02-15T04:26:46;10.25;;;6.43;;
27517;SDS011;14962;52.482;13.142;2024-02-15T04:29:13;11.38;;;7.00;;
27517;SDS011;14962;52.482;13.142;2024-02-15T04:31:39;9.57;;;6.60;;
27517;SDS011;14962;52.482;13.142;2024-02-15T04:34:05;13.05;;;7.57;;
27517;SDS011;14962;52.482;13.142;2024-02-15T04:36:31;10.32;;;6.72;;
27517;SDS011;14962;52.482;13.142;2024-02-15T04:38:58;8.68;;;5.93;;
27517;SDS011;14962;52.482;13.142;2024-02-15T04:41:26;10.15;;;6.18;;
27517;SDS011;14962;52.482;13.142;2024-02-15T04:43:52;12.15;;;6.60;;
27517;SDS011;14962;52.482;13.142;2024-02-15T04:46:18;11.98;;;7.00;;
27517;SDS011;14962;52.482;13.142;2024-02-15T04:48:50;11.57;;;7.45;;
27517;SDS011;14962;52.482;13.142;2024-02-15T04:51:16;11.98;;;6.75;;
27517;SDS011;14962;52.482;13.142;2024-02-15T04:53:43;10.05;;;6.05;;
27517;SDS011;14962;52.482;13.142;2024-02-15T04:56:11;9.15;;;6.65;;
27517;SDS011;14962;52.482;13.142;2024-02-15T04:58:41;9.68;;;6.35;;
27517;SDS011;14962;52.482;13.142;2024-02-15T05:01:14;10.60;;;6.93;;
27517;SDS011;14962;52.482;13.142;2024-02-15T05:03:40;11.38;;;7.00;;
27517;SDS011;14962;52.482;13.142;2024-02-15T05:06:06;11.82;;;6.75;;
27517;SDS011;14962;52.482;13.142;2024-02-15T05:08:33;11.07;;;6.25;;
27517;SDS011;14962;52.482;13.142;2024-02-15T05:11:01;8.77;;;5.93;;
27517;SDS011;14962;52.482;13.142;2024-02-15T05:13:29;10.80;;;6.53;;
27517;SDS011;14962;52.482;13.142;2024-02-15T05:15:55;8.82;;;5.90;;
27517;SDS011;14962;52.482;13.142;2024-02-15T05:18:21;11.60;;;6.55;;
27517;SDS011;14962;52.482;13.142;2024-02-15T05:20:47;10.10;;;6.43;;
27517;SDS011;14962;52.482;13.142;2024-02-15T05:23:13;11.50;;;6.55;;
27517;SDS011;14962;52.482;13.142;2024-02-15T05:25:40;10.18;;;6.15;;
27517;SDS011;14962;52.482;13.142;2024-02-15T05:28:06;11.30;;;6.43;;
27517;SDS011;14962;52.482;13.142;2024-02-15T05:30:33;11.38;;;6.88;;
27517;SDS011;14962;52.482;13.142;2024-02-15T05:32:59;12.07;;;6.45;;
27517;SDS011;14962;52.482;13.142;2024-02-15T05:35:26;10.55;;;6.85;;
27517;SDS011;14962;52.482;13.142;2024-02-15T05:37:53;12.63;;;6.55;;
27517;SDS011;14962;52.482;13.142;2024-02-15T05:40:19;9.52;;;6.25;;
27517;SDS011;14962;52.482;13.142;2024-02-15T05:42:45;10.40;;;6.05;;
27517;SDS011;14962;52.482;13.142;2024-02-15T05:45:28;12.88;;;7.03;;
27517;SDS011;14962;52.482;13.142;2024-02-15T05:50:20;9.98;;;6.15;;
27517;SDS011;14962;52.482;13.142;2024-02-15T05:52:48;10.43;;;6.38;;
27517;SDS011;14962;52.482;13.142;2024-02-15T05:55:14;11.85;;;6.70;;
27517;SDS011;14962;52.482;13.142;2024-02-15T05:57:41;11.65;;;6.40;;
27517;SDS011;14962;52.482;13.142;2024-02-15T06:00:07;10.93;;;6.40;;
27517;SDS011;14962;52.482;13.142;2024-02-15T06:02:34;8.75;;;5.95;;
27517;SDS011;14962;52.482;13.142;2024-02-15T06:04:59;11.20;;;6.63;;
27517;SDS011;14962;52.482;13.142;2024-02-15T06:07:28;14.95;;;6.90;;
27517;SDS011;14962;52.482;13.142;2024-02-15T06:09:57;10.60;;;6.60;;
27517;SDS011;14962;52.482;13.142;2024-02-15T06:12:27;12.40;;;7.00;;
27517;SDS011;14962;52.482;13.142;2024-02-15T06:14:53;11.85;;;6.65;;
27517;SDS011;14962;52.482;13.142;2024-02-15T06:17:20;12.77;;;6.82;;
27517;SDS011;14962;52.482;13.142;2024-02-15T06:19:45;10.70;;;6.55;;
27517;SDS011;14962;52.482;13.142;2024-02-15T06:22:11;12.00;;;7.00;;
27517;SDS011;14962;52.482;13.142;2024-02-15T06:24:38;11.57;;;6.53;;
27517;SDS011;14962;52.482;13.142;2024-02-15T06:27:04;15.18;;;7.00;;
27517;SDS011;14962;52.482;13.142;2024-02-15T06:29:30;11.95;;;7.18;;
27517;SDS011;14962;52.482;13.142;2024-02-15T06:32:15;11.77;;;7.03;;
27517;SDS011;14962;52.482;13.142;2024-02-15T06:35:00;12.15;;;7.15;;
27517;SDS011;14962;52.482;13.142;2024-02-15T06:37:44;11.18;;;7.05;;
27517;SDS011;14962;52.482;13.142;2024-02-15T06:40:29;11.63;;;6.28;;
27517;SDS011;14962;52.482;13.142;2024-02-15T06:42:55;12.73;;;7.13;;
27517;SDS011;14962;52.482;13.142;2024-02-15T06:45:21;14.00;;;8.00;;
27517;SDS011;14962;52.482;13.142;2024-02-15T06:47:47;13.98;;;7.07;;
27517;SDS011;14962;52.482;13.142;2024-02-15T06:50:14;10.65;;;6.63;;
27517;SDS011;14962;52.482;13.142;2024-02-15T06:52:42;11.48;;;6.70;;
27517;SDS011;14962;52.482;13.142;2024-02-15T06:55:08;12.07;;;7.07;;
27517;SDS011;14962;52.482;13.142;2024-02-15T06:57:37;12.20;;;6.93;;
27517;SDS011;14962;52.482;13.142;2024-02-15T07:00:05;12.82;;;6.30;;
27517;SDS011;14962;52.482;13.142;2024-02-15T07:02:34;12.50;;;7.15;;
27517;SDS011;14962;52.482;13.142;2024-02-15T07:05:01;16.42;;;7.32;;
27517;SDS011;14962;52.482;13.142;2024-02-15T07:07:31;10.63;;;6.20;;
27517;SDS011;14962;52.482;13.142;2024-02-15T07:09:58;15.48;;;6.60;;
27517;SDS011;14962;52.482;13.142;2024-02-15T07:12:27;12.65;;;7.13;;
27517;SDS011;14962;52.482;13.142;2024-02-15T07:14:53;11.10;;;6.47;;
27517;SDS011;14962;52.482;13.142;2024-02-15T07:17:19;9.57;;;6.10;;
27517;SDS011;14962;52.482;13.142;2024-02-15T07:19:45;11.98;;;6.45;;
27517;SDS011;14962;52.482;13.142;2024-02-15T07:22:14;12.85;;;6.45;;
27517;SDS011;14962;52.482;13.142;2024-02-15T07:24:41;9.73;;;6.03;;
27517;SDS011;14962;52.482;13.142;2024-02-15T07:27:07;9.90;;;6.18;;
27517;SDS011;14962;52.482;13.142;2024-02-15T07:29:34;10.80;;;6.43;;
27517;SDS011;14962;52.482;13.142;2024-02-15T07:32:02;9.73;;;6.03;;
27517;SDS011;14962;52.482;13.142;2024-02-15T07:34:29;11.68;;;6.55;;
27517;SDS011;14962;52.482;13.142;2024-02-15T07:36:55;12.63;;;6.30;;
27517;SDS011;14962;52.482;13.142;2024-02-15T07:39:23;9.80;;;6.22;;
27517;SDS011;14962;52.482;13.142;2024-02-15T07:41:50;9.60;;;5.85;;
27517;SDS011;14962;52.482;13.142;2024-02-15T07:44:16;13.20;;;6.65;;
27517;SDS011;14962;52.482;13.142;2024-02-15T07:46:45;9.32;;;5.78;;
27517;SDS011;14962;52.482;13.142;2024-02-15T07:49:12;10.77;;;6.20;;
27517;SDS011;14962;52.482;13.142;2024-02-15T07:51:38;9.65;;;5.75;;
27517;SDS011;14962;52.482;13.142;2024-02-15T07:54:04;8.65;;;5.50;;
27517;SDS011;14962;52.482;13.142;2024-02-15T07:56:31;9.32;;;5.60;;
27517;SDS011;14962;52.482;13.142;2024-02-15T07:58:57;7.60;;;5.38;;
27517;SDS011;14962;52.482;13.142;2024-02-15T08:01:23;8.73;;;5.78;;
27517;SDS011;14962;52.482;13.142;2024-02-15T08:03:49;7.72;;;5.03;;
27517;SDS011;14962;52.482;13.142;2024-02-15T08:06:16;7.25;;;5.07;;
27517;SDS011;14962;52.482;13.142;2024-02-15T08:08:42;8.40;;;5.10;;
27517;SDS011;14962;52.482;13.142;2024-02-15T08:11:15;7.28;;;5.03;;
27517;SDS011;14962;52.482;13.142;2024-02-15T08:13:44;8.75;;;5.50;;
27517;SDS011;14962;52.482;13.142;2024-02-15T08:16:10;8.07;;;4.85;;
27517;SDS011;14962;52.482;13.142;2024-02-15T08:18:37;7.88;;;4.38;;
27517;SDS011;14962;52.482;13.142;2024-02-15T08:21:03;8.55;;;4.65;;
27517;SDS011;14962;52.482;13.142;2024-02-15T08:23:29;9.60;;;4.50;;
27517;SDS011;14962;52.482;13.142;2024-02-15T08:25:57;6.93;;;4.72;;
27517;SDS011;14962;52.482;13.142;2024-02-15T08:28:23;8.73;;;4.88;;
27517;SDS011;14962;52.482;13.142;2024-02-15T08:30:49;7.97;;;4.72;;
27517;SDS011;14962;52.482;13.142;2024-02-15T08:33:14;9.07;;;4.55;;
27517;SDS011;14962;52.482;13.142;2024-02-15T08:35:40;9.55;;;5.13;;
27517;SDS011;14962;52.482;13.142;2024-02-15T08:38:06;9.13;;;5.05;;
27517;SDS011;14962;52.482;13.142;2024-02-15T08:40:32;7.75;;;4.43;;
27517;SDS011;14962;52.482;13.142;2024-02-15T08:42:58;9.50;;;5.53;;
27517;SDS011;14962;52.482;13.142;2024-02-15T08:45:24;7.38;;;4.47;;
27517;SDS011;14962;52.482;13.142;2024-02-15T08:47:50;7.57;;;4.95;;
27517;SDS011;14962;52.482;13.142;2024-02-15T08:50:18;7.70;;;4.75;;
27517;SDS011;14962;52.482;13.142;2024-02-15T08:52:46;10.13;;;4.30;;
27517;SDS011;14962;52.482;13.142;2024-02-15T08:55:12;6.70;;;4.10;;
27517;SDS011;14962;52.482;13.142;2024-02-15T08:57:42;8.52;;;4.18;;
27517;SDS011;14962;52.482;13.142;2024-02-15T09:00:09;6.97;;;4.03;;
27517;SDS011;14962;52.482;13.142;2024-02-15T09:02:41;7.22;;;4.35;;
27517;SDS011;14962;52.482;13.142;2024-02-15T09:05:07;7.55;;;3.88;;
27517;SDS011;14962;52.482;13.142;2024-02-15T09:07:34;7.10;;;4.13;;
27517;SDS011;14962;52.482;13.142;2024-02-15T09:10:01;5.45;;;4.03;;
27517;SDS011;14962;52.482;13.142;2024-02-15T09:12:27;4.53;;;3.40;;
27517;SDS011;14962;52.482;13.142;2024-02-15T09:14:53;7.30;;;4.22;;
27517;SDS011;14962;52.482;13.142;2024-02-15T09:17:20;8.65;;;4.13;;
27517;SDS011;14962;52.482;13.142;2024-02-15T09:19:49;4.97;;;2.55;;
27517;SDS011;14962;52.482;13.142;2024-02-15T09:22:15;8.98;;;4.03;;
27517;SDS011;14962;52.482;13.142;2024-02-15T09:24:47;6.97;;;3.47;;
27517;SDS011;14962;52.482;13.142;2024-02-15T09:27:13;5.88;;;3.97;;
27517;SDS011;14962;52.482;13.142;2024-02-15T09:29:39;5.80;;;3.40;;
27517;SDS011;14962;52.482;13.142;2024-02-15T09:32:05;6.00;;;3.72;;
27517;SDS011;14962;52.482;13.142;2024-02-15T09:34:31;5.85;;;3.10;;
27517;SDS011;14962;52.482;13.142;2024-02-15T09:36:57;6.78;;;3.20;;
27517;SDS011;14962;52.482;13.142;2024-02-15T09:39:23;6.15;;;3.40;;
27517;SDS011;14962;52.482;13.142;2024-02-15T09:41:49;4.18;;;2.90;;
27517;SDS011;14962;52.482;13.142;2024-02-15T09:44:22;7.15;;;3.42;;
27517;SDS011;14962;52.482;13.142;2024-02-15T09:47:04;6.90;;;2.90;;
27517;SDS011;14962;52.482;13.142;2024-02-15T09:49:35;3.80;;;2.70;;
27517;SDS011;14962;52.482;13.142;2024-02-15T09:52:02;5.72;;;3.20;;
27517;SDS011;14962;52.482;13.142;2024-02-15T09:54:30;4.78;;;2.95;;
27517;SDS011;14962;52.482;13.142;2024-02-15T09:56:56;4.53;;;2.65;;
27517;SDS011;14962;52.482;13.142;2024-02-15T09:59:24;3.70;;;2.67;;
27517;SDS011;14962;52.482;13.142;2024-02-15T10:01:51;4.20;;;3.00;;
27517;SDS011;14962;52.482;13.142;2024-02-15T10:04:18;4.43;;;2.53;;
27517;SDS011;14962;52.482;13.142;2024-02-15T10:06:44;3.47;;;2.40;;
27517;SDS011;14962;52.482;13.142;2024-02-15T10:09:28;3.05;;;2.20;;
27517;SDS011;14962;52.482;13.142;2024-02-15T10:11:59;4.18;;;2.00;;
27517;SDS011;14962;52.482;13.142;2024-02-15T10:14:26;2.75;;;2.20;;
27517;SDS011;14962;52.482;13.142;2024-02-15T10:16:53;5.47;;;2.22;;
27517;SDS011;14962;52.482;13.142;2024-02-15T10:19:19;3.20;;;2.30;;
27517;SDS011;14962;52.482;13.142;2024-02-15T10:21:50;4.85;;;2.33;;
27517;SDS011;14962;52.482;13.142;2024-02-15T10:24:17;4.13;;;2.10;;
27517;SDS011;14962;52.482;13.142;2024-02-15T10:26:44;3.15;;;1.83;;
27517;SDS011;14962;52.482;13.142;2024-02-15T10:29:14;5.63;;;2.08;;
27517;SDS011;14962;52.482;13.142;2024-02-15T10:31:55;3.03;;;2.00;;
27517;SDS011;14962;52.482;13.142;2024-02-15T10:34:21;2.75;;;1.52;;
27517;SDS011;14962;52.482;13.142;2024-02-15T10:36:48;3.35;;;2.20;;
27517;SDS011;14962;52.482;13.142;2024-02-15T10:39:18;2.92;;;2.05;;
27517;SDS011;14962;52.482;13.142;2024-02-15T10:41:52;3.00;;;1.85;;
27517;SDS011;14962;52.482;13.142;2024-02-15T10:44:19;2.90;;;1.80;;
27517;SDS011;14962;52.482;13.142;2024-02-15T10:46:45;2.80;;;1.73;;
27517;SDS011;14962;52.482;13.142;2024-02-15T10:49:15;2.47;;;1.58;;
27517;SDS011;14962;52.482;13.142;2024-02-15T10:51:42;2.22;;;1.55;;
27517;SDS011;14962;52.482;13.142;2024-02-15T10:54:11;2.45;;;1.65;;
27517;SDS011;14962;52.482;13.142;2024-02-15T10:56:43;3.10;;;1.75;;
27517;SDS011;14962;52.482;13.142;2024-02-15T10:59:16;3.83;;;1.42;;
27517;SDS011;14962;52.482;13.142;2024-02-15T11:01:42;3.53;;;1.80;;
27517;SDS011;14962;52.482;13.142;2024-02-15T11:04:09;2.58;;;1.30;;
27517;SDS011;14962;52.482;13.142;2024-02-15T11:06:38;2.05;;;1.20;;
27517;SDS011;14962;52.482;13.142;2024-02-15T11:09:06;3.88;;;1.88;;
27517;SDS011;14962;52.482;13.142;2024-02-15T11:11:33;5.38;;;1.85;;
27517;SDS011;14962;52.482;13.142;2024-02-15T11:16:47;2.42;;;1.73;;
27517;SDS011;14962;52.482;13.142;2024-02-15T11:19:39;2.05;;;1.35;;
27517;SDS011;14962;52.482;13.142;2024-02-15T11:22:08;2.40;;;1.75;;
27517;SDS011;14962;52.482;13.142;2024-02-15T11:24:35;3.38;;;1.60;;
27517;SDS011;14962;52.482;13.142;2024-02-15T11:27:02;2.42;;;1.65;;
27517;SDS011;14962;52.482;13.142;2024-02-15T11:29:54;4.50;;;1.60;;
27517;SDS011;14962;52.482;13.142;2024-02-15T11:32:35;2.15;;;1.65;;
27517;SDS011;14962;52.482;13.142;2024-02-15T11:35:11;2.55;;;1.73;;
27517;SDS011;14962;52.482;13.142;2024-02-15T11:43:09;2.70;;;1.60;;
27517;SDS011;14962;52.482;13.142;2024-02-15T11:45:36;3.88;;;1.63;;
27517;SDS011;14962;52.482;13.142;2024-02-15T11:48:09;4.35;;;1.65;;
27517;SDS011;14962;52.482;13.142;2024-02-15T11:50:36;2.20;;;1.30;;
27517;SDS011;14962;52.482;13.142;2024-02-15T11:53:02;2.72;;;1.45;;
27517;SDS011;14962;52.482;13.142;2024-02-15T11:55:35;1.90;;;1.40;;
27517;SDS011;14962;52.482;13.142;2024-02-15T11:58:03;2.28;;;1.40;;
27517;SDS011;14962;52.482;13.142;2024-02-15T12:00:35;1.48;;;1.17;;
27517;SDS011;14962;52.482;13.142;2024-02-15T12:03:19;4.35;;;1.35;;
27517;SDS011;14962;52.482;13.142;2024-02-15T12:06:04;1.50;;;1.13;;
27517;SDS011;14962;52.482;13.142;2024-02-15T12:08:49;1.85;;;1.00;;
27517;SDS011;14962;52.482;13.142;2024-02-15T12:11:34;2.25;;;1.30;;
27517;SDS011;14962;52.482;13.142;2024-02-15T12:14:19;2.10;;;1.30;;
27517;SDS011;14962;52.482;13.142;2024-02-15T12:17:08;4.53;;;1.13;;
27517;SDS011;14962;52.482;13.142;2024-02-15T12:19:53;2.42;;;1.13;;
27517;SDS011;14962;52.482;13.142;2024-02-15T12:22:21;1.65;;;0.82;;
27517;SDS011;14962;52.482;13.142;2024-02-15T12:24:54;4.47;;;1.35;;
27517;SDS011;14962;52.482;13.142;2024-02-15T12:27:20;1.50;;;1.00;;
27517;SDS011;14962;52.482;13.142;2024-02-15T12:29:55;1.48;;;1.10;;
27517;SDS011;14962;52.482;13.142;2024-02-15T12:32:23;2.03;;;1.33;;
27517;SDS011;14962;52.482;13.142;2024-02-15T12:34:49;1.30;;;1.00;;
27517;SDS011;14962;52.482;13.142;2024-02-15T12:37:17;2.00;;;1.00;;
27517;SDS011;14962;52.482;13.142;2024-02-15T12:39:43;3.60;;;1.10;;
27517;SDS011;14962;52.482;13.142;2024-02-15T12:42:09;1.80;;;1.20;;
27517;SDS011;14962;52.482;13.142;2024-02-15T12:44:41;2.85;;;1.30;;
27517;SDS011;14962;52.482;13.142;2024-02-15T12:47:16;1.58;;;1.10;;
27517;SDS011;14962;52.482;13.142;2024-02-15T12:49:42;3.88;;;1.48;;
27517;SDS011;14962;52.482;13.142;2024-02-15T12:55:05;2.10;;;1.00;;
27517;SDS011;14962;52.482;13.142;2024-02-15T12:57:33;2.22;;;1.25;;
27517;SDS011;14962;52.482;13.142;2024-02-15T13:00:00;5.13;;;1.20;;
27517;SDS011;14962;52.482;13.142;2024-02-15T13:02:35;3.35;;;1.25;;
27517;SDS011;14962;52.482;13.142;2024-02-15T13:05:02;2.42;;;1.00;;
27517;SDS011;14962;52.482;13.142;2024-02-15T13:07:28;2.05;;;0.95;;
27517;SDS011;14962;52.482;13.142;2024-02-15T13:09:54;2.95;;;0.80;;
27517;SDS011;14962;52.482;13.142;2024-02-15T13:12:20;1.92;;;1.30;;
27517;SDS011;14962;52.482;13.142;2024-02-15T13:14:46;5.95;;;1.20;;
27517;SDS011;14962;52.482;13.142;2024-02-15T13:17:12;3.17;;;1.13;;
27517;SDS011;14962;52.482;13.142;2024-02-15T13:19:38;6.40;;;1.70;;
27517;SDS011;14962;52.482;13.142;2024-02-15T13:22:05;3.17;;;1.00;;
27517;SDS011;14962;52.482;13.142;2024-02-15T13:24:33;5.30;;;1.23;;
27517;SDS011;14962;52.482;13.142;2024-02-15T13:27:03;1.67;;;1.25;;
27517;SDS011;14962;52.482;13.142;2024-02-15T13:29:29;2.00;;;1.25;;
27517;SDS011;14962;52.482;13.142;2024-02-15T13:31:57;2.90;;;1.98;;
27517;SDS011;14962;52.482;13.142;2024-02-15T13:34:24;2.67;;;1.00;;
27517;SDS011;14962;52.482;13.142;2024-02-15T13:36:50;2.95;;;1.17;;
27517;SDS011;14962;52.482;13.142;2024-02-15T13:39:16;2.88;;;1.08;;
27517;SDS011;14962;52.482;13.142;2024-02-15T13:41:46;3.10;;;1.35;;
27517;SDS011;14962;52.482;13.142;2024-02-15T13:44:12;4.00;;;1.40;;
27517;SDS011;14962;52.482;13.142;2024-02-15T13:46:39;1.38;;;1.02;;
27517;SDS011;14962;52.482;13.142;2024-02-15T13:49:07;3.70;;;1.48;;
27517;SDS011;14962;52.482;13.142;2024-02-15T13:51:33;2.75;;;0.90;;
27517;SDS011;14962;52.482;13.142;2024-02-15T13:53:59;1.70;;;1.20;;
27517;SDS011;14962;52.482;13.142;2024-02-15T13:56:25;3.35;;;1.02;;
27517;SDS011;14962;52.482;13.142;2024-02-15T13:58:51;1.83;;;1.02;;
27517;SDS011;14962;52.482;13.142;2024-02-15T14:01:17;2.05;;;1.40;;
27517;SDS011;14962;52.482;13.142;2024-02-15T14:03:43;1.88;;;1.10;;
27517;SDS011;14962;52.482;13.142;2024-02-15T14:06:10;1.77;;;1.60;;
27517;SDS011;14962;52.482;13.142;2024-02-15T14:08:36;2.65;;;1.58;;
27517;SDS011;14962;52.482;13.142;2024-02-15T14:11:02;5.18;;;2.67;;
27517;SDS011;14962;52.482;13.142;2024-02-15T14:13:30;3.47;;;2.10;;
27517;SDS011;14962;52.482;13.142;2024-02-15T14:15:56;2.45;;;1.48;;
27517;SDS011;14962;52.482;13.142;2024-02-15T14:18:22;3.95;;;1.92;;
27517;SDS011;14962;52.482;13.142;2024-02-15T14:20:49;3.42;;;1.98;;
27517;SDS011;14962;52.482;13.142;2024-02-15T14:23:15;4.35;;;2.38;;
27517;SDS011;14962;52.482;13.142;2024-02-15T14:25:42;3.13;;;1.95;;
27517;SDS011;14962;52.482;13.142;2024-02-15T14:28:09;4.05;;;1.77;;
27517;SDS011;14962;52.482;13.142;2024-02-15T14:30:35;2.13;;;1.55;;
27517;SDS011;14962;52.482;13.142;2024-02-15T14:33:20;2.92;;;1.80;;
27517;SDS011;14962;52.482;13.142;2024-02-15T14:35:47;2.42;;;1.42;;
27517;SDS011;14962;52.482;13.142;2024-02-15T14:38:14;3.22;;;1.80;;
27517;SDS011;14962;52.482;13.142;2024-02-15T14:40:42;3.65;;;1.88;;
27517;SDS011;14962;52.482;13.142;2024-02-15T14:43:09;5.88;;;1.70;;
27517;SDS011;14962;52.482;13.142;2024-02-15T14:45:37;5.30;;;1.83;;
27517;SDS011;14962;52.482;13.142;2024-02-15T14:48:06;2.30;;;1.65;;